Time;durP1;ratioP1;P1;durP2;ratioP2;P2;SDS_P1;SDS_P2;PMS_P1;PMS_P2;Temp;Humidity;BMP_temperature;BMP_pressure;BME280_temperature;BME280_humidity;BME280_pressure;Samples;Min_cycle;Max_cycle;Signal;HPM_P1;HPM_P2
2022/10/03 00:00:31;;;;;;;5.70;3.17;;;14.20;99.90;;;;;;5073653;28;20093;-76
2022/10/03 00:03:28;;;;;;;6.05;2.85;;;14.20;99.90;;;;;;5074174;28;20017;-75
2022/10/03 00:06:26;;;;;;;4.93;3.00;;;14.20;99.90;;;;;;5074099;28;20028;-75
2022/10/03 00:08:58;;;;;;;4.63;3.17;;;14.10;99.90;;;;;;5073332;28;20477;-74
2022/10/03 00:11:30;;;;;;;8.73;3.55;;;14.20;99.90;;;;;;5077903;28;20024;-75
2022/10/03 00:13:59;;;;;;;5.00;3.08;;;14.20;99.90;;;;;;5074284;28;20059;-75
2022/10/03 00:16:28;;;;;;;5.60;3.22;;;14.10;99.90;;;;;;5064873;28;20027;-75
2022/10/03 00:19:24;;;;;;;5.80;2.90;;;14.10;99.90;;;;;;5071805;28;20017;-75
2022/10/03 00:22:05;;;;;;;6.88;3.45;;;14.10;99.90;;;;;;5059736;28;20078;-75
2022/10/03 00:24:52;;;;;;;;;;;14.10;99.90;;;;;;5062560;28;20021;-75
2022/10/03 00:27:45;;;;;;;14.30;3.65;;;14.10;99.90;;;;;;5071748;28;19911;-75
2022/10/03 00:30:18;;;;;;;4.85;2.67;;;14.00;99.90;;;;;;5067511;28;20060;-75
2022/10/03 00:33:01;;;;;;;4.68;2.58;;;13.90;99.90;;;;;;5069397;28;20021;-75
2022/10/03 00:35:27;;;;;;;4.38;3.13;;;13.90;99.90;;;;;;5064575;28;20027;-75
2022/10/03 00:38:11;;;;;;;5.43;2.80;;;13.80;99.90;;;;;;5066183;28;20044;-75
2022/10/03 00:41:08;;;;;;;5.88;2.90;;;13.80;99.90;;;;;;5069107;28;20033;-75
2022/10/03 00:43:44;;;;;;;3.65;2.97;;;13.70;99.90;;;;;;5068327;28;20113;-75
2022/10/03 00:46:18;;;;;;;3.78;2.80;;;13.70;99.90;;;;;;5071281;28;20072;-75
2022/10/03 00:49:21;;;;;;;4.50;3.30;;;13.70;99.90;;;;;;5076560;28;20029;-75
2022/10/03 00:52:17;;;;;;;11.20;3.88;;;13.70;99.90;;;;;;5066735;28;20048;-75
2022/10/03 00:55:11;;;;;;;4.00;3.03;;;13.70;99.90;;;;;;5057257;28;20017;-76
2022/10/03 00:58:19;;;;;;;6.53;2.90;;;13.70;99.90;;;;;;5062375;28;20059;-75
2022/10/03 01:00:50;;;;;;;6.80;3.05;;;13.70;99.90;;;;;;5058351;28;20043;-75
2022/10/03 01:03:28;;;;;;;;;;;13.70;99.90;;;;;;5062669;28;20495;-75
2022/10/03 01:06:20;;;;;;;7.75;2.88;;;13.70;99.90;;;;;;5068667;28;19912;-75
2022/10/03 01:08:45;;;;;;;4.07;3.20;;;13.70;99.90;;;;;;5070630;28;20099;-75
2022/10/03 01:11:34;;;;;;;4.00;3.30;;;13.70;99.90;;;;;;5070475;28;20028;-75
2022/10/03 01:14:21;;;;;;;3.45;2.90;;;13.70;99.90;;;;;;5071632;28;20016;-76
2022/10/03 01:17:08;;;;;;;5.80;3.33;;;13.70;99.90;;;;;;5071780;28;20017;-75
2022/10/03 01:19:55;;;;;;;8.40;2.97;;;13.60;99.90;;;;;;5075147;28;20056;-76
2022/10/03 01:22:42;;;;;;;4.35;3.00;;;13.60;99.90;;;;;;5064426;28;20440;-77
2022/10/03 01:25:22;;;;;;;4.88;3.30;;;13.60;99.90;;;;;;5065413;28;20068;-75
2022/10/03 01:31:13;;;;;;;4.25;2.67;;;13.50;99.90;;;;;;5059415;28;20152;-75
2022/10/03 01:33:51;;;;;;;4.47;3.58;;;13.50;99.90;;;;;;5076215;28;20090;-75
2022/10/03 01:36:25;;;;;;;6.80;3.22;;;13.60;99.90;;;;;;5063342;28;20018;-75
2022/10/03 01:39:20;;;;;;;4.88;3.17;;;13.60;99.90;;;;;;5064430;28;20044;-75
2022/10/03 01:42:05;;;;;;;7.95;4.03;;;13.60;99.90;;;;;;5059397;28;20071;-75
2022/10/03 01:44:41;;;;;;;3.85;2.88;;;13.50;99.90;;;;;;5069649;28;20021;-75
2022/10/03 01:47:33;;;;;;;6.53;3.30;;;13.50;99.90;;;;;;5069802;28;20028;-75
2022/10/03 01:50:16;;;;;;;5.45;3.53;;;13.50;99.90;;;;;;5056657;28;20532;-75
2022/10/03 01:53:12;;;;;;;6.20;3.67;;;13.50;99.90;;;;;;5070592;28;20020;-75
2022/10/03 01:56:07;;;;;;;5.75;3.35;;;13.50;99.90;;;;;;5072178;28;20016;-75
2022/10/03 01:59:04;;;;;;;4.45;3.00;;;13.50;99.90;;;;;;5077739;28;20035;-75
2022/10/03 02:01:54;;;;;;;6.30;3.65;;;13.50;99.90;;;;;;5072549;28;20024;-75
2022/10/03 02:04:34;;;;;;;7.85;3.97;;;13.40;99.90;;;;;;5062028;28;20028;-75
2022/10/03 02:07:27;;;;;;;9.85;3.42;;;13.40;99.90;;;;;;5061838;28;20432;-74
2022/10/03 02:10:12;;;;;;;3.83;3.22;;;13.40;99.90;;;;;;5062544;28;20025;-75
2022/10/03 02:13:03;;;;;;;3.38;2.75;;;13.40;99.90;;;;;;5065240;28;20080;-74
2022/10/03 02:16:14;;;;;;;4.80;3.60;;;13.30;99.90;;;;;;5068993;28;20086;-75
2022/10/03 02:19:02;;;;;;;6.40;3.55;;;13.30;99.90;;;;;;5076619;28;20048;-75
2022/10/03 02:21:31;;;;;;;4.38;3.03;;;13.30;99.90;;;;;;5078874;28;20086;-75
2022/10/03 02:24:19;;;;;;;4.18;3.33;;;13.30;99.90;;;;;;5071718;28;20017;-75
2022/10/03 02:27:19;;;;;;;5.30;3.60;;;13.30;99.90;;;;;;5061816;28;20029;-75
2022/10/03 02:30:08;;;;;;;4.72;3.33;;;13.40;99.90;;;;;;5061210;28;20511;-75
2022/10/03 02:32:46;;;;;;;5.80;3.45;;;13.40;99.90;;;;;;5070518;28;20486;-75
2022/10/03 02:35:36;;;;;;;3.15;2.83;;;13.50;99.90;;;;;;5067570;28;20052;-75
2022/10/03 02:38:25;;;;;;;4.20;3.30;;;13.50;99.90;;;;;;5066839;28;20056;-75
2022/10/03 02:41:10;;;;;;;4.45;3.30;;;13.60;99.90;;;;;;5066295;28;20036;-76
2022/10/03 02:43:54;;;;;;;4.22;3.42;;;13.70;99.90;;;;;;5067637;28;20036;-75
2022/10/03 02:47:00;;;;;;;3.97;3.17;;;13.80;99.90;;;;;;5071276;28;20020;-75
2022/10/03 02:49:32;;;;;;;4.47;3.08;;;13.80;99.90;;;;;;5074353;28;20050;-75
2022/10/03 02:52:16;;;;;;;8.77;3.50;;;13.90;99.90;;;;;;5076446;28;20017;-75
2022/10/03 02:54:41;;;;;;;8.23;3.42;;;13.90;99.90;;;;;;5076452;28;20403;-75
2022/10/03 02:57:10;;;;;;;4.20;3.30;;;14.00;99.90;;;;;;5076885;28;20028;-75
2022/10/03 03:00:04;;;;;;;4.28;2.88;;;14.00;99.90;;;;;;5059956;28;20025;-75
2022/10/03 03:03:00;;;;;;;4.95;3.08;;;14.10;99.90;;;;;;5060912;28;20028;-75
2022/10/03 03:06:03;;;;;;;4.05;2.70;;;14.10;99.90;;;;;;5062009;28;20033;-76
2022/10/03 03:08:55;;;;;;;4.97;3.20;;;14.20;99.90;;;;;;5067411;28;20052;-76
2022/10/03 03:11:40;;;;;;;4.60;3.10;;;14.20;99.90;;;;;;5077027;28;20032;-76
2022/10/03 03:14:56;;;;;;;8.35;3.33;;;14.30;99.90;;;;;;5071229;28;20465;-75
2022/10/03 03:17:40;;;;;;;3.58;2.90;;;14.30;99.90;;;;;;5074880;28;20028;-76
2022/10/03 03:20:17;;;;;;;4.22;2.88;;;14.40;99.90;;;;;;5075292;28;20057;-76
2022/10/03 03:23:01;;;;;;;4.47;2.90;;;14.50;99.90;;;;;;5077201;28;20086;-76
2022/10/03 03:25:57;;;;;;;3.47;2.90;;;14.50;99.90;;;;;;5065101;28;20071;-76
2022/10/03 03:28:47;;;;;;;7.38;2.97;;;14.50;99.90;;;;;;5062097;28;20013;-76
2022/10/03 03:31:19;;;;;;;5.28;3.15;;;14.50;99.90;;;;;;5061673;28;20036;-75
2022/10/03 03:34:06;;;;;;;4.85;2.90;;;14.50;99.90;;;;;;5063817;28;20367;-76
2022/10/03 03:36:50;;;;;;;5.03;2.92;;;14.50;99.90;;;;;;5065573;28;20032;-76
2022/10/03 03:39:51;;;;;;;4.50;3.17;;;14.60;99.90;;;;;;5064188;28;20037;-76
2022/10/03 03:42:26;;;;;;;6.82;3.33;;;14.60;99.90;;;;;;5065680;28;20020;-76
2022/10/03 03:45:03;;;;;;;7.63;3.50;;;14.60;99.90;;;;;;5070246;28;20119;-76
2022/10/03 03:47:56;;;;;;;5.28;2.90;;;14.60;99.90;;;;;;5068518;28;20024;-76
2022/10/03 03:50:28;;;;;;;7.00;3.17;;;14.60;99.90;;;;;;5072553;28;20127;-76
2022/10/03 03:53:09;;;;;;;7.07;3.35;;;14.60;99.90;;;;;;5073901;28;20099;-76
2022/10/03 03:55:48;;;;;;;4.78;2.95;;;14.60;99.90;;;;;;5074790;28;20025;-76
2022/10/03 03:58:34;;;;;;;6.30;3.47;;;14.60;99.90;;;;;;5081915;28;20024;-76
2022/10/03 04:01:12;;;;;;;5.72;3.08;;;14.60;99.90;;;;;;5072536;28;20032;-76
2022/10/03 04:03:50;;;;;;;9.15;3.85;;;14.60;99.90;;;;;;5058057;28;20096;-76
2022/10/03 04:06:41;;;;;;;4.13;3.03;;;14.60;99.90;;;;;;5060442;28;20021;-76
2022/10/03 04:09:19;;;;;;;4.15;3.47;;;14.60;99.90;;;;;;5064327;28;20397;-76
2022/10/03 04:11:48;;;;;;;4.65;3.33;;;14.60;99.90;;;;;;5062452;28;20435;-76
2022/10/03 04:14:26;;;;;;;7.18;3.25;;;14.60;99.90;;;;;;5064018;28;20020;-76
2022/10/03 04:20:08;;;;;;;7.80;3.17;;;14.70;99.90;;;;;;5075658;28;20044;-75
2022/10/03 04:22:49;;;;;;;4.90;3.13;;;14.70;99.90;;;;;;5065857;28;20024;-76
2022/10/03 04:25:30;;;;;;;;;;;14.70;99.90;;;;;;5065774;28;20029;-76
2022/10/03 04:28:25;;;;;;;4.47;3.38;;;14.70;99.90;;;;;;5075277;28;20365;-76
2022/10/03 04:31:20;;;;;;;8.32;3.78;;;14.60;99.90;;;;;;5068413;28;20032;-76
2022/10/03 04:34:22;;;;;;;6.10;3.20;;;14.60;99.90;;;;;;5061112;28;20166;-76
2022/10/03 04:37:10;;;;;;;8.02;3.15;;;14.60;99.90;;;;;;5063295;28;20021;-76
2022/10/03 04:39:50;;;;;;;3.55;3.00;;;14.60;99.90;;;;;;5065449;28;20045;-76
2022/10/03 04:42:31;;;;;;;8.10;3.88;;;14.70;99.90;;;;;;5074946;28;20565;-75
2022/10/03 04:45:19;;;;;;;6.80;3.58;;;14.60;99.90;;;;;;5073711;28;20060;-76
2022/10/03 04:47:53;;;;;;;6.50;3.90;;;14.60;99.90;;;;;;5073582;28;20028;-76
2022/10/03 04:50:31;;;;;;;5.57;3.33;;;14.60;99.90;;;;;;5071294;28;20051;-76
2022/10/03 04:53:13;;;;;;;8.98;3.42;;;14.60;99.90;;;;;;5070231;28;20477;-76
2022/10/03 04:55:55;;;;;;;7.03;3.38;;;14.60;99.90;;;;;;5068111;28;20025;-76
2022/10/03 04:58:56;;;;;;;6.55;3.70;;;14.60;99.90;;;;;;5076856;28;20025;-76
2022/10/03 05:01:34;;;;;;;5.60;3.00;;;14.60;99.90;;;;;;5065679;28;20032;-75
2022/10/03 05:04:14;;;;;;;7.10;3.10;;;14.60;99.90;;;;;;5074911;28;20027;-76
2022/10/03 05:07:02;;;;;;;5.22;3.25;;;14.60;99.90;;;;;;5065520;28;20056;-76
2022/10/03 05:09:57;;;;;;;8.00;3.60;;;14.50;99.90;;;;;;5058501;28;20048;-76
2022/10/03 05:12:47;;;;;;;6.05;3.38;;;14.50;99.90;;;;;;5060858;28;20036;-76
2022/10/03 05:15:28;;;;;;;8.07;4.43;;;14.50;99.90;;;;;;5070829;28;20024;-76
2022/10/03 05:18:14;;;;;;;10.20;4.18;;;14.50;99.90;;;;;;5061789;28;20053;-76
2022/10/03 05:20:46;;;;;;;4.97;3.70;;;14.50;99.90;;;;;;5063383;28;20028;-76
2022/10/03 05:23:34;;;;;;;5.05;3.65;;;14.50;99.90;;;;;;5063404;28;20033;-76
2022/10/03 05:26:17;;;;;;;3.97;2.88;;;14.50;99.90;;;;;;5074163;28;20020;-76
2022/10/03 05:28:58;;;;;;;5.80;3.38;;;14.50;99.90;;;;;;5072254;28;20388;-76
2022/10/03 05:32:03;;;;;;;4.43;3.15;;;14.50;99.90;;;;;;5069773;28;20032;-76
2022/10/03 05:34:35;;;;;;;5.18;3.33;;;14.50;99.90;;;;;;5054135;28;20079;-76
2022/10/03 05:37:27;;;;;;;5.45;3.60;;;14.50;99.90;;;;;;5061034;28;20049;-76
2022/10/03 05:40:23;;;;;;;6.25;3.33;;;14.50;99.90;;;;;;5075600;28;20040;-76
2022/10/03 05:42:52;;;;;;;4.68;3.10;;;14.50;99.90;;;;;;5072465;28;20020;-76
2022/10/03 05:45:34;;;;;;;7.00;3.90;;;14.50;99.90;;;;;;5072108;28;20470;-76
2022/10/03 05:48:21;;;;;;;5.93;3.20;;;14.60;99.90;;;;;;5067440;28;20036;-76
2022/10/03 05:51:19;;;;;;;4.78;3.30;;;14.60;99.90;;;;;;5069331;28;20112;-76
2022/10/03 05:54:04;;;;;;;6.00;3.65;;;14.60;99.90;;;;;;5067252;28;20386;-76
2022/10/03 05:56:51;;;;;;;4.57;3.55;;;14.60;99.90;;;;;;5071193;28;20435;-76
2022/10/03 05:59:29;;;;;;;11.23;5.10;;;14.60;99.90;;;;;;5070772;28;20028;-76
2022/10/03 06:02:08;;;;;;;8.25;4.07;;;14.60;99.90;;;;;;5069189;28;20063;-76
2022/10/03 06:05:11;;;;;;;7.22;4.40;;;14.60;99.90;;;;;;5078893;28;20111;-76
2022/10/03 06:08:03;;;;;;;4.93;3.40;;;14.60;99.90;;;;;;5073821;28;20028;-76
2022/10/03 06:11:11;;;;;;;6.47;4.20;;;14.60;99.90;;;;;;5070289;28;20028;-75
2022/10/03 06:14:33;;;;;;;9.55;4.05;;;14.60;99.90;;;;;;5062723;28;20031;-76
2022/10/03 06:17:05;;;;;;;8.90;4.40;;;14.60;99.90;;;;;;5004786;28;20014;-76
2022/10/03 06:19:36;;;;;;;6.70;3.72;;;14.70;99.90;;;;;;5074863;28;20040;-76
2022/10/03 06:22:17;;;;;;;6.20;3.85;;;14.60;99.90;;;;;;5072126;28;20032;-76
2022/10/03 06:24:58;;;;;;;9.35;4.03;;;14.60;99.90;;;;;;5065075;28;20031;-75
2022/10/03 06:27:46;;;;;;;5.88;4.47;;;14.70;99.90;;;;;;5073551;28;20021;-76
2022/10/03 06:30:44;;;;;;;4.22;3.33;;;14.70;99.90;;;;;;5075624;28;20115;-76
2022/10/03 06:33:38;;;;;;;9.60;4.35;;;14.70;99.90;;;;;;5062530;28;20091;-76
2022/10/03 06:36:23;;;;;;;5.47;3.85;;;14.80;99.90;;;;;;5064764;28;20032;-75
2022/10/03 06:39:08;;;;;;;4.32;3.58;;;14.80;99.90;;;;;;5058483;28;20037;-76
2022/10/03 06:42:09;;;;;;;5.63;3.67;;;14.80;99.90;;;;;;5063135;28;20028;-76
2022/10/03 06:44:59;;;;;;;5.35;3.40;;;14.90;99.90;;;;;;5060902;28;20039;-75
2022/10/03 06:47:41;;;;;;;7.07;3.70;;;14.90;99.90;;;;;;5072154;28;20115;-76
2022/10/03 06:50:35;;;;;;;7.53;3.42;;;15.00;99.90;;;;;;5071151;28;20036;-76
2022/10/03 06:53:25;;;;;;;10.77;3.88;;;15.00;99.90;;;;;;5074940;28;20017;-76
2022/10/03 06:56:19;;;;;;;3.63;2.88;;;15.00;99.90;;;;;;5076599;28;20028;-76
2022/10/03 06:58:57;;;;;;;12.35;3.97;;;15.10;99.90;;;;;;5075164;28;20073;-76
2022/10/03 07:01:52;;;;;;;4.47;3.50;;;15.20;99.90;;;;;;5078430;28;20032;-75
2022/10/03 07:04:24;;;;;;;6.25;3.90;;;15.20;99.90;;;;;;5075569;28;20081;-75
2022/10/03 07:06:58;;;;;;;9.63;4.05;;;15.20;99.90;;;;;;5075720;28;20020;-75
2022/10/03 07:09:30;;;;;;;7.05;3.85;;;15.30;99.90;;;;;;5075888;28;20092;-76
2022/10/03 07:12:17;;;;;;;7.07;4.15;;;15.40;99.90;;;;;;5076436;28;20447;-76
2022/10/03 07:15:01;;;;;;;13.48;3.97;;;15.40;99.90;;;;;;5066883;28;20021;-76
2022/10/03 07:17:47;;;;;;;9.10;3.75;;;15.50;99.90;;;;;;5067223;28;20088;-76
2022/10/03 07:20:37;;;;;;;4.70;3.75;;;15.50;99.90;;;;;;5045590;28;20092;-76
2022/10/03 07:23:39;;;;;;;7.87;3.77;;;15.60;99.90;;;;;;5069556;28;20440;-76
2022/10/03 07:26:37;;;;;;;7.25;3.60;;;15.70;99.90;;;;;;5073559;28;20473;-76
2022/10/03 07:29:34;;;;;;;7.38;4.13;;;15.80;99.90;;;;;;5068483;28;20023;-76
2022/10/03 07:32:21;;;;;;;7.07;4.38;;;15.80;99.90;;;;;;5071893;28;20067;-76
2022/10/03 07:35:17;;;;;;;6.03;3.97;;;15.90;99.90;;;;;;5060797;28;20016;-76
2022/10/03 07:41:24;;;;;;;6.10;4.47;;;15.90;99.90;;;;;;5069797;28;20040;-76
2022/10/03 07:44:02;;;;;;;5.75;4.10;;;16.00;99.90;;;;;;5068894;28;20028;-76
2022/10/03 07:46:53;;;;;;;5.97;3.90;;;16.00;99.90;;;;;;5069584;28;20028;-76
2022/10/03 07:49:44;;;;;;;6.88;4.47;;;16.10;99.90;;;;;;5072411;28;20074;-76
2022/10/03 07:52:22;;;;;;;10.73;4.80;;;16.10;99.90;;;;;;5067807;28;20033;-76
2022/10/03 07:54:51;;;;;;;7.63;3.90;;;16.20;99.90;;;;;;5065857;28;20013;-76
2022/10/03 07:57:49;;;;;;;5.50;4.22;;;16.30;99.90;;;;;;5072017;28;20033;-76
2022/10/03 08:00:18;;;;;;;7.28;4.05;;;16.40;99.90;;;;;;5051988;28;20080;-76
2022/10/03 08:02:56;;;;;;;6.07;3.55;;;16.50;99.90;;;;;;5078174;28;20016;-76
2022/10/03 08:05:45;;;;;;;10.88;3.97;;;16.60;99.90;;;;;;5063474;28;20037;-76
2022/10/03 08:09:05;;;;;;;8.07;4.00;;;16.70;99.90;;;;;;5058234;28;20115;-77
2022/10/03 08:12:14;;;;;;;4.85;3.25;;;16.90;99.90;;;;;;5009439;28;20040;-77
2022/10/03 08:14:57;;;;;;;9.90;3.90;;;17.00;99.90;;;;;;5071144;28;20477;-76
2022/10/03 08:17:31;;;;;;;8.73;3.80;;;17.20;99.90;;;;;;5068877;28;20435;-77
2022/10/03 08:20:22;;;;;;;5.28;3.67;;;17.20;99.90;;;;;;5064842;28;20036;-77
2022/10/03 08:23:06;;;;;;;8.18;4.00;;;17.30;99.90;;;;;;5066718;28;20055;-77
2022/10/03 08:25:44;;;;;;;9.90;4.70;;;17.50;99.90;;;;;;5075806;28;20059;-77
2022/10/03 08:28:31;;;;;;;4.68;3.20;;;17.70;99.90;;;;;;5071622;28;20029;-77
2022/10/03 08:31:19;;;;;;;6.72;3.20;;;17.90;99.90;;;;;;5071155;28;20032;-77
2022/10/03 08:34:23;;;;;;;17.02;3.63;;;17.90;99.90;;;;;;5080489;28;20439;-77
2022/10/03 08:37:26;;;;;;;15.02;3.42;;;18.20;99.90;;;;;;5075990;28;20046;-77
2022/10/03 08:40:15;;;;;;;9.13;3.47;;;18.30;99.90;;;;;;5076483;28;20163;-77
2022/10/03 08:42:55;;;;;;;10.88;3.70;;;18.40;99.90;;;;;;5045506;28;20036;-77
2022/10/03 08:45:38;;;;;;;8.48;3.22;;;18.50;99.90;;;;;;5073099;28;20028;-77
2022/10/03 08:48:13;;;;;;;7.93;2.88;;;18.60;99.90;;;;;;5063156;28;20021;-77
2022/10/03 08:50:55;;;;;;;7.35;3.05;;;18.60;99.90;;;;;;5072661;28;20021;-77
2022/10/03 08:53:47;;;;;;;9.82;3.13;;;18.60;99.90;;;;;;5066731;28;20016;-77
2022/10/03 08:56:15;;;;;;;7.47;2.90;;;18.80;99.90;;;;;;5075082;28;20036;-76
2022/10/03 08:59:13;;;;;;;5.85;2.90;;;19.00;99.90;;;;;;5072463;28;20037;-74
2022/10/03 09:02:14;;;;;;;7.53;2.92;;;19.10;99.90;;;;;;5069958;28;20051;-77
2022/10/03 09:05:23;;;;;;;6.80;3.05;;;19.30;99.90;;;;;;5038105;28;20501;-77
2022/10/03 09:08:14;;;;;;;8.65;2.42;;;19.40;99.90;;;;;;5063513;28;20017;-75
2022/10/03 09:11:05;;;;;;;9.05;2.55;;;19.50;99.90;;;;;;5073525;28;20020;-75
2022/10/03 09:13:37;;;;;;;;;;;19.60;99.90;;;;;;5076628;28;20025;-74
2022/10/03 09:16:35;;;;;;;10.90;3.33;;;19.60;99.90;;;;;;5068732;28;19904;-74
2022/10/03 09:19:29;;;;;;;8.20;2.40;;;19.70;99.90;;;;;;5048670;28;20082;-74
2022/10/03 09:22:12;;;;;;;4.85;2.25;;;19.70;99.90;;;;;;5062559;28;20093;-75
2022/10/03 09:25:04;;;;;;;7.30;2.13;;;19.90;99.90;;;;;;5063746;28;20021;-75
2022/10/03 09:28:09;;;;;;;8.70;2.47;;;19.90;99.90;;;;;;5073153;28;20496;-77
2022/10/03 09:30:52;;;;;;;5.78;1.63;;;20.00;99.90;;;;;;5070797;28;20021;-74
2022/10/03 09:33:48;;;;;;;7.95;1.98;;;20.00;99.90;;;;;;5066860;28;20032;-74
2022/10/03 09:36:29;;;;;;;5.40;1.88;;;20.00;99.90;;;;;;5074806;28;20021;-74
2022/10/03 09:39:18;;;;;;;6.57;2.15;;;19.90;99.90;;;;;;5076221;28;20045;-74
2022/10/03 09:41:53;;;;;;;7.88;2.50;;;19.90;99.90;;;;;;5063642;28;20016;-75
2022/10/03 09:44:38;;;;;;;3.92;1.83;;;19.80;99.90;;;;;;5064210;28;20021;-74
2022/10/03 09:47:22;;;;;;;8.05;2.42;;;19.80;99.90;;;;;;5067872;28;20040;-76
2022/10/03 09:50:27;;;;;;;6.45;2.30;;;19.70;99.90;;;;;;5060283;28;20038;-76
2022/10/03 09:53:32;;;;;;;5.25;2.00;;;19.80;99.90;;;;;;5067762;28;20439;-77
2022/10/03 09:56:46;;;;;;;9.48;2.67;;;19.90;99.90;;;;;;5074592;28;20049;-77
2022/10/03 09:59:35;;;;;;;6.90;1.90;;;20.00;99.90;;;;;;5068132;28;20040;-76
2022/10/03 10:02:11;;;;;;;4.22;1.83;;;20.00;99.90;;;;;;5068003;28;20021;-75
2022/10/03 10:04:56;;;;;;;5.93;2.63;;;19.90;99.90;;;;;;5072721;28;20016;-75
2022/10/03 10:08:01;;;;;;;4.82;2.30;;;20.00;99.90;;;;;;5073506;28;20481;-76
2022/10/03 10:10:35;;;;;;;4.30;1.90;;;20.00;99.90;;;;;;5072545;28;20439;-75
2022/10/03 10:13:17;;;;;;;6.50;1.90;;;20.10;99.90;;;;;;5056290;28;20063;-75
2022/10/03 10:16:08;;;;;;;4.63;2.08;;;20.20;99.90;;;;;;5058823;28;20044;-75
2022/10/03 10:18:59;;;;;;;6.80;1.75;;;20.20;99.90;;;;;;5061978;28;20116;-75
2022/10/03 10:21:53;;;;;;;3.92;1.60;;;20.30;99.90;;;;;;5063653;28;20032;-74
2022/10/03 10:25:11;;;;;;;3.70;1.75;;;20.30;99.90;;;;;;5066395;28;20037;-75
2022/10/03 10:27:50;;;;;;;4.82;1.70;;;20.40;99.90;;;;;;5040124;28;20033;-74
2022/10/03 10:31:06;;;;;;;6.07;1.60;;;20.50;99.90;;;;;;5072750;28;20509;-75
2022/10/03 10:34:09;;;;;;;3.20;1.73;;;20.60;99.90;;;;;;5079070;28;20147;-75
2022/10/03 10:37:17;;;;;;;8.35;1.83;;;20.60;99.90;;;;;;5077128;28;20059;-75
2022/10/03 10:40:17;;;;;;;8.18;2.13;;;20.60;99.90;;;;;;5075539;28;20473;-75
2022/10/03 10:43:18;;;;;;;6.95;1.83;;;20.60;99.90;;;;;;5077112;28;20047;-75
2022/10/03 10:46:12;;;;;;;5.82;1.90;;;20.60;99.90;;;;;;5058655;28;20383;-75
2022/10/03 10:49:07;;;;;;;7.75;2.88;;;20.50;99.90;;;;;;5071030;28;20021;-75
2022/10/03 10:51:45;;;;;;;7.07;3.95;;;20.50;99.90;;;;;;5078381;28;20021;-76
2022/10/03 10:54:47;;;;;;;8.27;3.80;;;20.40;99.90;;;;;;5066999;28;20029;-75
2022/10/03 10:57:25;;;;;;;3.53;1.77;;;20.30;99.90;;;;;;5066752;28;20021;-75
2022/10/03 11:00:00;;;;;;;6.78;1.85;;;20.40;99.90;;;;;;5067778;28;20405;-75
2022/10/03 11:02:47;;;;;;;3.30;1.98;;;20.50;99.90;;;;;;5072073;28;20052;-75
2022/10/03 11:05:39;;;;;;;3.97;2.00;;;20.70;99.90;;;;;;5070111;28;20473;-75
2022/10/03 11:08:52;;;;;;;6.70;2.72;;;20.80;99.90;;;;;;5074537;28;20493;-75
2022/10/03 11:11:30;;;;;;;3.72;2.00;;;21.00;99.90;;;;;;5070532;28;20107;-75
2022/10/03 11:14:29;;;;;;;3.92;1.67;;;21.10;99.90;;;;;;5078326;28;20388;-75
2022/10/03 11:17:17;;;;;;;2.67;1.90;;;21.20;99.90;;;;;;5076997;28;20040;-75
2022/10/03 11:20:09;;;;;;;2.85;1.65;;;21.30;99.90;;;;;;5079134;28;20060;-74
2022/10/03 11:22:50;;;;;;;6.25;1.70;;;21.40;99.90;;;;;;5069425;28;20051;-75
2022/10/03 11:25:39;;;;;;;3.15;1.50;;;21.50;99.90;;;;;;5067834;28;20029;-75
2022/10/03 11:28:33;;;;;;;3.42;2.20;;;21.60;99.90;;;;;;5063445;28;20047;-75
2022/10/03 11:31:24;;;;;;;4.82;1.77;;;21.80;99.90;;;;;;5071203;28;20021;-75
2022/10/03 11:34:14;;;;;;;6.55;2.03;;;21.90;99.90;;;;;;5074566;28;20503;-76
2022/10/03 11:36:49;;;;;;;3.85;1.42;;;22.10;99.90;;;;;;5075313;28;20021;-75
2022/10/03 11:39:18;;;;;;;4.88;1.88;;;22.20;99.90;;;;;;5073299;28;20111;-75
2022/10/03 11:42:20;;;;;;;4.03;1.95;;;22.40;99.90;;;;;;5065588;28;20440;-76
2022/10/03 11:44:56;;;;;;;4.50;2.05;;;22.50;99.90;;;;;;5073051;28;20428;-75
2022/10/03 11:47:44;;;;;;;5.25;1.63;;;22.50;99.90;;;;;;5058186;28;20078;-76
2022/10/03 11:50:31;;;;;;;6.43;1.70;;;22.10;99.90;;;;;;5060759;28;20032;-76
2022/10/03 11:53:09;;;;;;;6.00;1.75;;;22.00;99.90;;;;;;5063143;28;20028;-75
2022/10/03 11:55:58;;;;;;;4.75;1.95;;;21.90;99.90;;;;;;5063790;28;20102;-75
2022/10/03 11:58:24;;;;;;;4.00;1.63;;;21.80;99.90;;;;;;5064701;28;20023;-76
2022/10/03 12:01:12;;;;;;;6.30;2.47;;;21.60;99.90;;;;;;5067942;28;20488;-76
2022/10/03 12:04:01;;;;;;;4.60;1.92;;;21.50;99.90;;;;;;5073063;28;20100;-76
2022/10/03 12:09:54;;;;;;;3.47;1.60;;;21.30;99.90;;;;;;5068681;28;20057;-75
2022/10/03 12:12:36;;;;;;;6.40;2.10;;;21.20;99.90;;;;;;5075147;28;20021;-76
2022/10/03 12:15:22;;;;;;;6.30;2.10;;;21.10;99.90;;;;;;5074726;28;20021;-76
2022/10/03 12:18:06;;;;;;;8.20;2.20;;;21.10;99.90;;;;;;5077147;28;20029;-75
2022/10/03 12:21:06;;;;;;;3.22;1.50;;;21.10;99.90;;;;;;5072070;28;20032;-76
2022/10/03 12:24:10;;;;;;;5.50;2.43;;;21.20;99.90;;;;;;5058861;28;20503;-75
2022/10/03 12:27:12;;;;;;;5.68;2.50;;;21.20;99.90;;;;;;5062598;28;20302;-75
2022/10/03 12:29:44;;;;;;;6.50;2.20;;;21.30;99.90;;;;;;5066643;28;20497;-75
2022/10/03 12:32:42;;;;;;;5.30;2.20;;;21.40;99.90;;;;;;5063815;28;20024;-76
2022/10/03 12:35:43;;;;;;;3.03;1.55;;;21.50;99.90;;;;;;5043531;28;20071;-76
2022/10/03 12:38:38;;;;;;;4.88;2.42;;;21.60;99.90;;;;;;5073466;28;20055;-76
2022/10/03 12:41:23;;;;;;;5.57;2.42;;;21.70;99.90;;;;;;5074439;28;20099;-75
2022/10/03 12:44:13;;;;;;;10.50;2.20;;;21.60;99.90;;;;;;5074015;28;20017;-75
2022/10/03 12:46:45;;;;;;;4.03;2.05;;;21.40;99.90;;;;;;5071804;28;20024;-76
2022/10/03 12:49:34;;;;;;;4.25;2.05;;;21.60;99.90;;;;;;5071005;28;20074;-75
2022/10/03 12:52:07;;;;;;;6.47;2.22;;;21.70;99.90;;;;;;5060526;28;20078;-77
2022/10/03 12:54:48;;;;;;;6.47;2.03;;;21.80;99.90;;;;;;5064214;28;20028;-76
2022/10/03 12:57:33;;;;;;;5.07;2.28;;;21.90;99.90;;;;;;5066842;28;20025;-76
2022/10/03 13:00:14;;;;;;;6.90;2.58;;;22.00;99.90;;;;;;5066661;28;20017;-76
2022/10/03 13:02:57;;;;;;;4.72;2.05;;;22.00;99.90;;;;;;5070397;28;20032;-76
2022/10/03 13:05:43;;;;;;;6.57;2.20;;;22.10;99.90;;;;;;5067134;28;20029;-77
2022/10/03 13:08:37;;;;;;;7.20;2.38;;;22.20;99.90;;;;;;5071262;28;20024;-76
2022/10/03 13:11:31;;;;;;;7.22;2.30;;;22.30;99.90;;;;;;5064973;28;20018;-76
2022/10/03 13:14:05;;;;;;;4.82;2.22;;;22.30;99.90;;;;;;5075212;28;20020;-77
2022/10/03 13:16:38;;;;;;;6.82;2.13;;;22.40;99.90;;;;;;5064152;28;20044;-76
2022/10/03 13:19:26;;;;;;;5.28;2.00;;;22.60;99.90;;;;;;5058320;28;20028;-76
2022/10/03 13:22:24;;;;;;;7.32;2.10;;;22.60;99.90;;;;;;5059668;28;20115;-75
2022/10/03 13:25:15;;;;;;;5.88;1.80;;;22.50;99.90;;;;;;5058095;28;20033;-76
2022/10/03 13:27:49;;;;;;;6.68;2.08;;;22.50;99.90;;;;;;5070337;28;20097;-76
2022/10/03 13:30:28;;;;;;;9.05;1.90;;;22.60;99.90;;;;;;5067448;28;20445;-76
2022/10/03 13:33:14;;;;;;;3.17;2.08;;;22.30;99.90;;;;;;5063683;28;20017;-76
2022/10/03 13:35:58;;;;;;;6.22;1.88;;;22.20;99.90;;;;;;5068082;28;20021;-76
2022/10/03 13:38:45;;;;;;;11.35;2.35;;;22.10;99.90;;;;;;5070879;28;20045;-76
2022/10/03 13:41:26;;;;;;;5.55;2.80;;;22.00;99.90;;;;;;5067279;28;20033;-76
2022/10/03 13:44:08;;;;;;;6.65;1.92;;;22.10;99.90;;;;;;5073897;28;20029;-76
2022/10/03 13:46:52;;;;;;;5.35;2.15;;;22.20;99.90;;;;;;5063606;28;20025;-77
2022/10/03 13:49:57;;;;;;;5.43;2.08;;;22.30;99.90;;;;;;5073198;28;20028;-77
2022/10/03 13:52:29;;;;;;;5.65;1.90;;;22.30;99.90;;;;;;5083898;28;20062;-77
2022/10/03 13:55:18;;;;;;;3.30;1.75;;;22.40;99.90;;;;;;5077699;28;20396;-76
2022/10/03 13:58:31;;;;;;;3.42;1.73;;;22.50;99.90;;;;;;5079265;28;20031;-76
2022/10/03 14:01:10;;;;;;;4.55;1.58;;;22.50;99.90;;;;;;5052846;28;20060;-77
2022/10/03 14:04:11;;;;;;;2.33;1.73;;;22.60;99.90;;;;;;5068587;28;20021;-76
2022/10/03 14:07:07;;;;;;;13.73;3.60;;;22.80;99.90;;;;;;5074221;28;20024;-76
2022/10/03 14:10:00;;;;;;;3.47;1.70;;;22.90;99.90;;;;;;5069473;28;20028;-76
2022/10/03 14:12:42;;;;;;;4.68;2.20;;;22.80;99.90;;;;;;5077615;28;20024;-76
2022/10/03 14:15:30;;;;;;;7.47;2.25;;;23.00;99.90;;;;;;5078456;28;20495;-77
2022/10/03 14:18:08;;;;;;;5.13;1.83;;;23.00;99.90;;;;;;5069694;28;20025;-77
2022/10/03 14:21:08;;;;;;;4.00;1.52;;;23.10;99.90;;;;;;5062887;28;20097;-77
2022/10/03 14:23:43;;;;;;;3.75;1.67;;;23.20;99.90;;;;;;5075297;28;20028;-76
2022/10/03 14:26:14;;;;;;;11.68;1.95;;;23.20;99.90;;;;;;5069150;28;20025;-76
2022/10/03 14:29:12;;;;;;;9.02;2.40;;;23.30;99.90;;;;;;5069397;28;20070;-76
2022/10/03 14:31:46;;;;;;;7.75;2.80;;;23.30;99.90;;;;;;5058739;28;20048;-76
2022/10/03 14:34:30;;;;;;;5.10;1.75;;;23.30;99.90;;;;;;5069666;28;20069;-76
2022/10/03 14:37:14;;;;;;;2.75;1.48;;;23.40;99.90;;;;;;5066900;28;20051;-76
2022/10/03 14:39:58;;;;;;;5.55;1.60;;;23.40;99.90;;;;;;5074463;28;20017;-77
2022/10/03 14:42:46;;;;;;;3.58;1.98;;;23.40;99.90;;;;;;5073318;28;20025;-77